createdAt,value
2019-04-07T00:00:10.536Z,47.67
2019-04-07T00:02:39.822Z,54.77
2019-04-07T00:05:13.628Z,53.93
2019-04-07T00:07:40.147Z,55.40
2019-04-07T00:10:12.820Z,56.07
2019-04-07T00:12:41.770Z,56.87
2019-04-07T00:15:11.332Z,57.00
2019-04-07T00:17:40.341Z,59.03
2019-04-07T00:20:09.759Z,52.13
2019-04-07T00:22:39.044Z,51.47
2019-04-07T00:25:08.117Z,59.57
2019-04-07T00:27:37.902Z,56.10
2019-04-07T00:30:07.592Z,63.40
2019-04-07T00:32:36.745Z,59.30
2019-04-07T00:35:06.893Z,60.70
2019-04-07T00:37:36.318Z,52.77
2019-04-07T00:40:07.734Z,57.55
2019-04-07T00:42:37.064Z,50.90
2019-04-07T00:45:06.336Z,53.80
2019-04-07T00:47:35.250Z,57.50
2019-04-07T00:50:06.599Z,56.77
2019-04-07T00:52:36.052Z,55.83
2019-04-07T00:55:06.601Z,50.33
2019-04-07T00:57:35.601Z,45.73
2019-04-07T01:00:08.093Z,46.53
2019-04-07T01:02:37.534Z,46.80
2019-04-07T01:05:07.286Z,44.00
2019-04-07T01:07:36.363Z,47.23
2019-04-07T01:10:06.165Z,44.48
2019-04-07T01:12:35.805Z,56.67
2019-04-07T01:15:07.631Z,50.23
2019-04-07T01:17:37.045Z,46.83
2019-04-07T01:20:06.497Z,46.17
2019-04-07T01:22:35.414Z,52.20
2019-04-07T01:25:06.158Z,49.33
2019-04-07T01:27:35.800Z,47.83
2019-04-07T01:30:06.265Z,49.67
2019-04-07T01:32:35.658Z,46.40
2019-04-07T01:35:05.801Z,49.93
2019-04-07T01:37:35.254Z,52.43
2019-04-07T01:40:05.952Z,50.20
2019-04-07T01:42:36.822Z,50.90
2019-04-07T01:45:11.522Z,47.43
2019-04-07T01:47:58.455Z,48.23
2019-04-07T01:50:34.713Z,45.27
2019-04-07T01:53:07.941Z,46.13
2019-04-07T01:55:55.300Z,49.93
2019-04-07T01:58:42.823Z,48.80
2019-04-07T02:01:16.473Z,49.07
2019-04-07T02:04:01.887Z,54.03
2019-04-07T02:06:48.677Z,52.53
2019-04-07T02:09:25.775Z,49.13
2019-04-07T02:11:56.981Z,50.73
2019-04-07T02:14:44.444Z,55.10
2019-04-07T02:17:27.280Z,50.57
2019-04-07T02:19:58.198Z,50.73
2019-04-07T02:22:37.716Z,55.13
2019-04-07T02:25:23.423Z,50.73
2019-04-07T02:28:03.408Z,47.57
2019-04-07T02:30:46.125Z,50.47
2019-04-07T02:33:28.915Z,50.27
2019-04-07T02:36:21.987Z,48.23
2019-04-07T02:39:04.664Z,45.00
2019-04-07T02:41:44.429Z,47.10
2019-04-07T02:44:15.622Z,50.80
2019-04-07T02:46:46.333Z,51.37
2019-04-07T02:49:19.982Z,49.47
2019-04-07T02:52:00.509Z,50.20
2019-04-07T02:54:34.581Z,48.70
2019-04-07T02:57:08.070Z,47.90
2019-04-07T02:59:42.870Z,42.37
2019-04-07T03:02:17.726Z,47.50
2019-04-07T03:05:05.356Z,53.07
2019-04-07T03:07:37.286Z,46.93
2019-04-07T03:10:09.119Z,52.63
2019-04-07T03:12:57.453Z,52.40
2019-04-07T03:15:32.382Z,44.63
2019-04-07T03:18:03.503Z,51.37
2019-04-07T03:20:49.621Z,52.20
2019-04-07T03:23:36.632Z,51.23
2019-04-07T03:26:23.748Z,51.37
2019-04-07T03:28:55.668Z,51.80
2019-04-07T03:31:36.498Z,50.17
2019-04-07T03:34:28.382Z,51.37
2019-04-07T03:37:19.379Z,50.77
2019-04-07T03:39:37.288Z,48.43
2019-04-07T03:42:24.591Z,51.17
2019-04-07T03:45:01.301Z,48.80
2019-04-07T03:47:50.560Z,49.37
2019-04-07T03:50:21.827Z,51.13
2019-04-07T03:53:08.210Z,53.03
2019-04-07T03:55:45.875Z,52.90
2019-04-07T03:58:16.891Z,53.17
2019-04-07T04:01:08.825Z,53.50
2019-04-07T04:03:40.630Z,54.27
2019-04-07T04:06:14.421Z,54.80
2019-04-07T04:08:45.743Z,52.63
2019-04-07T04:11:25.505Z,56.13
2019-04-07T04:14:05.389Z,60.60
2019-04-07T04:16:36.354Z,54.53
2019-04-07T04:19:06.764Z,53.73
2019-04-07T04:21:36.430Z,54.70
2019-04-07T04:24:06.150Z,51.93
2019-04-07T04:26:35.838Z,54.90
2019-04-07T04:29:05.779Z,59.33
2019-04-07T04:31:35.899Z,55.57
2019-04-07T04:34:05.561Z,56.47
2019-04-07T04:36:36.001Z,53.47
2019-04-07T04:39:08.134Z,52.57
2019-04-07T04:41:37.724Z,53.47
2019-04-07T04:44:08.679Z,58.47
2019-04-07T04:46:38.772Z,52.77
2019-04-07T04:49:08.135Z,52.63
2019-04-07T04:51:39.559Z,51.57
2019-04-07T04:54:08.503Z,51.87
2019-04-07T04:56:37.829Z,54.07
2019-04-07T04:59:07.435Z,56.37
2019-04-07T05:01:37.765Z,54.77
2019-04-07T05:04:07.488Z,57.07
2019-04-07T05:06:36.984Z,54.30
2019-04-07T05:09:07.732Z,70.60
2019-04-07T05:11:37.101Z,68.73
2019-04-07T05:14:07.118Z,67.17
2019-04-07T05:16:36.601Z,63.77
2019-04-07T05:19:06.621Z,85.50
2019-04-07T05:21:36.211Z,62.20
2019-04-07T05:24:05.737Z,71.13
2019-04-07T05:26:35.131Z,73.83
2019-04-07T05:29:04.746Z,77.77
2019-04-07T05:31:34.739Z,87.27
2019-04-07T05:34:04.150Z,96.13
2019-04-07T05:36:33.486Z,70.00
2019-04-07T05:39:04.456Z,70.83
2019-04-07T05:41:33.792Z,60.33
2019-04-07T05:44:03.515Z,48.90
2019-04-07T05:46:33.514Z,46.53
2019-04-07T05:49:03.064Z,49.03
2019-04-07T05:51:32.760Z,49.43
2019-04-07T05:54:02.619Z,46.20
2019-04-07T05:56:31.997Z,50.03
2019-04-07T05:59:01.790Z,49.93
2019-04-07T06:01:31.300Z,46.80
2019-04-07T06:04:01.223Z,46.17
2019-04-07T06:06:30.995Z,46.77
2019-04-07T06:09:00.961Z,44.37
2019-04-07T06:11:33.104Z,47.57
2019-04-07T06:14:01.872Z,45.13
2019-04-07T06:16:31.225Z,49.13
2019-04-07T06:19:03.692Z,52.70
2019-04-07T06:21:32.339Z,50.40
2019-04-07T06:24:02.472Z,51.90
2019-04-07T06:26:31.927Z,48.93
2019-04-07T06:29:01.567Z,55.63
2019-04-07T06:31:32.797Z,56.40
2019-04-07T06:34:02.102Z,58.60
2019-04-07T06:36:31.993Z,64.80
2019-04-07T06:39:01.518Z,61.67
2019-04-07T06:41:32.332Z,59.87
2019-04-07T06:44:09.951Z,54.70
2019-04-07T06:46:41.235Z,57.47
2019-04-07T06:49:18.125Z,58.53
2019-04-07T06:52:04.808Z,59.30
2019-04-07T06:54:35.861Z,53.87
2019-04-07T06:57:23.345Z,52.47
2019-04-07T07:00:03.437Z,51.53
2019-04-07T07:02:44.437Z,52.90
2019-04-07T07:05:18.925Z,56.93
2019-04-07T07:07:49.925Z,51.67
2019-04-07T07:10:28.883Z,54.40
2019-04-07T07:13:00.050Z,52.33
2019-04-07T07:15:38.520Z,50.77
2019-04-07T07:18:24.470Z,44.63
2019-04-07T07:21:02.557Z,44.93
2019-04-07T07:23:33.574Z,43.23
2019-04-07T07:26:03.499Z,41.53
2019-04-07T07:28:33.761Z,43.27
2019-04-07T07:31:03.237Z,44.07
2019-04-07T07:33:32.584Z,40.87
2019-04-07T07:36:03.299Z,44.33
2019-04-07T07:38:33.490Z,41.17
2019-04-07T07:41:04.657Z,42.60
2019-04-07T07:43:34.224Z,40.33
2019-04-07T07:46:03.542Z,36.83
2019-04-07T07:48:32.885Z,38.83
2019-04-07T07:51:02.469Z,35.13
2019-04-07T07:53:31.851Z,37.83
2019-04-07T07:56:02.070Z,37.40
2019-04-07T07:58:33.385Z,38.50
2019-04-07T08:01:03.253Z,36.30
2019-04-07T08:03:32.656Z,37.57
2019-04-07T08:06:04.813Z,34.33
2019-04-07T08:08:33.149Z,33.23
2019-04-07T08:11:02.779Z,31.70
2019-04-07T08:13:32.496Z,33.20
2019-04-07T08:16:02.017Z,34.07
2019-04-07T08:18:31.413Z,33.63
2019-04-07T08:21:00.762Z,33.93
2019-04-07T08:23:30.722Z,32.23
2019-04-07T08:26:00.430Z,31.80
2019-04-07T08:28:29.833Z,32.83
2019-04-07T08:30:59.702Z,30.27
2019-04-07T08:33:29.811Z,32.10
2019-04-07T08:36:00.042Z,32.70
2019-04-07T08:38:29.386Z,32.87
2019-04-07T08:40:58.733Z,32.57
2019-04-07T08:43:28.065Z,37.00
2019-04-07T08:45:57.958Z,30.93
2019-04-07T08:48:27.925Z,33.50
2019-04-07T08:50:59.606Z,35.20
2019-04-07T08:53:28.414Z,32.63
2019-04-07T08:55:57.811Z,33.70
2019-04-07T08:58:28.994Z,32.60
2019-04-07T09:00:58.554Z,30.02
2019-04-07T09:03:28.053Z,29.77
2019-04-07T09:05:58.305Z,33.98
2019-04-07T09:08:27.826Z,30.30
2019-04-07T09:11:14.506Z,26.45
2019-04-07T09:13:46.496Z,29.98
2019-04-07T09:16:18.483Z,29.45
2019-04-07T09:19:04.371Z,30.95
2019-04-07T09:21:38.706Z,27.37
2019-04-07T09:24:21.353Z,28.73
2019-04-07T09:26:52.464Z,26.48
2019-04-07T09:29:26.144Z,31.50
2019-04-07T09:32:10.719Z,28.67
2019-04-07T09:34:57.970Z,29.65
2019-04-07T09:37:38.792Z,29.57
2019-04-07T09:40:19.110Z,27.35
2019-04-07T09:43:00.993Z,26.02
2019-04-07T09:45:49.095Z,26.37
2019-04-07T09:48:38.498Z,27.42
2019-04-07T09:51:14.478Z,25.55
2019-04-07T09:53:51.359Z,24.23
2019-04-07T09:56:32.931Z,25.08
2019-04-07T09:59:07.832Z,25.23
2019-04-07T10:01:57.078Z,24.85
2019-04-07T10:04:27.526Z,24.55
2019-04-07T10:06:58.529Z,27.87
2019-04-07T10:09:38.628Z,24.95
2019-04-07T10:12:15.513Z,23.85
2019-04-07T10:15:04.390Z,26.65
2019-04-07T10:17:51.766Z,32.13
2019-04-07T10:20:28.737Z,24.92
2019-04-07T10:23:05.236Z,24.20
2019-04-07T10:25:54.075Z,22.50
2019-04-07T10:28:27.864Z,23.15
2019-04-07T10:31:18.746Z,21.60
2019-04-07T10:34:03.935Z,22.60
2019-04-07T10:36:37.564Z,22.35
2019-04-07T10:39:18.628Z,21.02
2019-04-07T10:42:05.281Z,20.68
2019-04-07T10:44:36.365Z,19.48
2019-04-07T10:47:07.350Z,18.17
2019-04-07T10:49:38.328Z,18.85
2019-04-07T10:52:09.311Z,22.00
2019-04-07T10:54:46.256Z,19.62
2019-04-07T10:57:20.494Z,16.17
2019-04-07T11:00:01.285Z,18.73
2019-04-07T11:02:52.934Z,20.40
2019-04-07T11:05:30.393Z,20.07
2019-04-07T11:08:18.071Z,19.10
2019-04-07T11:10:52.230Z,18.60
2019-04-07T11:13:32.642Z,21.55
2019-04-07T11:16:19.387Z,18.82
2019-04-07T11:19:06.794Z,20.77
2019-04-07T11:21:37.753Z,20.07
2019-04-07T11:24:08.925Z,20.63
2019-04-07T11:26:43.062Z,21.20
2019-04-07T11:29:17.673Z,17.10
2019-04-07T11:31:49.363Z,19.20
2019-04-07T11:34:34.459Z,17.07
2019-04-07T11:37:23.355Z,14.80
2019-04-07T11:40:04.700Z,15.13
2019-04-07T11:42:35.843Z,14.40
2019-04-07T11:45:25.390Z,14.47
2019-04-07T11:48:12.874Z,17.03
2019-04-07T11:51:00.146Z,16.97
2019-04-07T11:53:34.049Z,19.13
2019-04-07T11:56:21.710Z,17.63
2019-04-07T11:59:01.531Z,16.67
2019-04-07T12:01:32.825Z,15.83
2019-04-07T12:04:06.798Z,15.57
2019-04-07T12:06:53.700Z,18.13
2019-04-07T12:09:30.489Z,17.20
2019-04-07T12:12:13.671Z,13.77
2019-04-07T12:14:51.301Z,16.57
2019-04-07T12:17:23.436Z,17.27
2019-04-07T12:19:58.147Z,16.67
2019-04-07T12:22:29.241Z,17.43
2019-04-07T12:25:02.010Z,14.17
2019-04-07T12:27:48.839Z,15.13
2019-04-07T12:30:23.353Z,15.83
2019-04-07T12:32:55.110Z,14.90
2019-04-07T12:35:44.736Z,15.83
2019-04-07T12:38:31.943Z,14.73
2019-04-07T12:41:22.016Z,19.90
2019-04-07T12:44:00.639Z,14.77
2019-04-07T12:46:31.611Z,15.70
2019-04-07T12:49:18.896Z,14.30
2019-04-07T12:52:05.934Z,14.47
2019-04-07T12:54:43.732Z,19.07
2019-04-07T12:57:14.820Z,18.80
2019-04-07T12:59:51.086Z,15.43
2019-04-07T13:02:29.980Z,19.47
2019-04-07T13:05:10.046Z,14.97
2019-04-07T13:07:43.781Z,14.53
2019-04-07T13:10:14.951Z,16.47
2019-04-07T13:13:02.621Z,18.70
2019-04-07T13:15:42.068Z,16.57
2019-04-07T13:18:31.499Z,16.63
2019-04-07T13:21:05.867Z,16.97
2019-04-07T13:23:55.009Z,16.87
2019-04-07T13:26:30.258Z,18.93
2019-04-07T13:28:58.927Z,20.80
2019-04-07T13:31:47.055Z,24.33
2019-04-07T13:34:18.063Z,25.43
2019-04-07T13:36:58.042Z,19.33
2019-04-07T13:39:30.290Z,23.87
2019-04-07T13:42:10.317Z,19.93
2019-04-07T13:44:45.565Z,21.33
2019-04-07T13:47:20.529Z,25.23
2019-04-07T13:50:07.677Z,23.97
2019-04-07T13:52:41.959Z,25.07
2019-04-07T13:55:29.573Z,19.43
2019-04-07T13:58:00.819Z,22.53
2019-04-07T14:00:50.554Z,22.57
2019-04-07T14:03:25.178Z,20.57
2019-04-07T14:06:14.589Z,25.23
2019-04-07T14:09:01.315Z,21.83
2019-04-07T14:12:01.549Z,21.33
2019-04-07T14:14:20.153Z,21.97
2019-04-07T14:17:07.345Z,21.13
2019-04-07T14:19:38.688Z,21.63
2019-04-07T14:22:25.663Z,21.73
2019-04-07T14:24:56.896Z,22.33
2019-04-07T14:27:30.990Z,19.70
2019-04-07T14:48:08.802Z,22.23
2019-04-07T14:50:40.716Z,20.57
2019-04-07T14:53:30.416Z,22.80
2019-04-07T14:56:16.503Z,21.43
2019-04-07T14:58:57.293Z,19.13
2019-04-07T15:01:37.854Z,20.37
2019-04-07T15:04:07.326Z,21.53
2019-04-07T15:06:41.756Z,20.50
2019-04-07T15:09:13.325Z,20.17
2019-04-07T15:11:44.499Z,17.43
2019-04-07T15:14:14.808Z,16.77
2019-04-07T15:16:45.052Z,19.00
2019-04-07T15:19:14.711Z,22.93
2019-04-07T15:21:44.169Z,24.73
2019-04-07T15:24:13.643Z,22.03
2019-04-07T15:26:46.859Z,19.93
2019-04-07T15:29:14.679Z,20.43
2019-04-07T15:31:44.135Z,20.67
2019-04-07T15:34:14.364Z,20.23
2019-04-07T15:36:47.999Z,20.87
2019-04-07T15:39:16.231Z,21.47
2019-04-07T15:41:45.593Z,21.73
2019-04-07T15:44:15.686Z,22.90
2019-04-07T15:46:49.072Z,21.37
2019-04-07T15:49:17.016Z,20.13
2019-04-07T15:51:46.423Z,20.17
2019-04-07T15:54:20.204Z,23.57
2019-04-07T15:56:49.249Z,20.63
2019-04-07T15:59:20.622Z,21.93
2019-04-07T16:01:50.062Z,19.10
2019-04-07T16:04:25.173Z,18.67
2019-04-07T16:06:51.514Z,20.77
2019-04-07T16:09:32.976Z,16.87
2019-04-07T16:11:53.192Z,26.20
2019-04-07T16:14:23.087Z,18.37
2019-04-07T16:16:53.632Z,23.77
2019-04-07T16:19:35.048Z,20.10
2019-04-07T16:21:54.910Z,18.13
2019-04-07T16:24:24.544Z,23.57
2019-04-07T16:26:54.704Z,17.80
2019-04-07T16:29:24.368Z,21.97
2019-04-07T16:31:55.774Z,24.53
2019-04-07T16:34:25.079Z,18.43
2019-04-07T16:36:57.274Z,20.93
2019-04-07T16:39:26.600Z,20.43
2019-04-07T16:41:56.140Z,24.40
2019-04-07T16:44:26.563Z,20.33
2019-04-07T16:46:58.006Z,19.23
2019-04-07T16:49:28.024Z,21.63
2019-04-07T16:52:00.579Z,22.00
2019-04-07T16:54:28.653Z,22.27
2019-04-07T16:56:58.684Z,22.80
2019-04-07T16:59:28.172Z,25.03
2019-04-07T17:01:58.038Z,20.87
2019-04-07T17:04:27.559Z,23.10
2019-04-07T17:07:02.387Z,19.40
2019-04-07T17:09:29.266Z,20.70
2019-04-07T17:11:58.771Z,24.30
2019-04-07T17:14:32.110Z,21.90
2019-04-07T17:17:00.169Z,22.57
2019-04-07T17:19:30.123Z,20.33
2019-04-07T17:22:00.745Z,20.30
2019-04-07T17:24:30.718Z,20.17
2019-04-07T17:27:00.511Z,25.20
2019-04-07T17:29:32.133Z,22.90
2019-04-07T17:32:02.560Z,23.33
2019-04-07T17:34:33.621Z,24.10
2019-04-07T17:37:04.116Z,24.97
2019-04-07T17:39:46.772Z,21.53
2019-04-07T17:42:18.420Z,22.93
2019-04-07T17:45:05.578Z,20.53
2019-04-07T17:47:51.819Z,22.40
2019-04-07T17:50:31.963Z,27.43
2019-04-07T17:53:19.217Z,21.93
2019-04-07T17:55:57.540Z,25.07
2019-04-07T17:58:44.347Z,21.40
2019-04-07T18:01:33.064Z,23.13
2019-04-07T18:04:04.061Z,20.67
2019-04-07T18:06:38.495Z,22.17
2019-04-07T18:09:12.720Z,20.43
2019-04-07T18:11:43.106Z,22.03
2019-04-07T18:14:16.954Z,25.07
2019-04-07T18:17:04.468Z,21.77
2019-04-07T18:19:38.223Z,20.47
2019-04-07T18:22:25.543Z,20.83
2019-04-07T18:25:06.988Z,20.20
2019-04-07T18:27:38.551Z,20.10
2019-04-07T18:30:14.492Z,19.37
2019-04-07T18:32:46.195Z,19.73
2019-04-07T18:35:30.787Z,19.87
2019-04-07T18:38:10.234Z,20.00
2019-04-07T18:40:46.533Z,21.47
2019-04-07T18:43:19.273Z,21.53
2019-04-07T18:46:08.850Z,18.23
2019-04-07T18:48:42.809Z,17.73
2019-04-07T18:51:14.832Z,21.10
2019-04-07T18:53:53.111Z,20.23
2019-04-07T18:56:27.116Z,19.97
2019-04-07T18:58:58.318Z,20.47
2019-04-07T19:01:39.508Z,19.50
2019-04-07T19:04:17.027Z,18.53
2019-04-07T19:06:48.809Z,24.87
2019-04-07T19:09:23.912Z,19.77
2019-04-07T19:12:04.167Z,21.80
2019-04-07T19:14:45.350Z,19.53
2019-04-07T19:17:09.116Z,20.27
2019-04-07T19:19:40.109Z,23.13
2019-04-07T19:22:16.937Z,28.27
2019-04-07T19:25:05.517Z,21.53
2019-04-07T19:27:37.441Z,23.53
2019-04-07T19:30:19.386Z,24.20
2019-04-07T19:32:54.923Z,24.33
2019-04-07T19:35:37.565Z,26.13
2019-04-07T19:38:08.087Z,23.53
2019-04-07T19:40:57.408Z,23.20
2019-04-07T19:43:41.864Z,22.97
2019-04-07T19:46:30.235Z,26.17
2019-04-07T19:49:02.244Z,22.70
2019-04-07T19:51:47.321Z,22.97
2019-04-07T19:54:19.529Z,21.87
2019-04-07T19:56:51.295Z,22.33
2019-04-07T19:59:28.154Z,22.10
2019-04-07T20:02:08.287Z,24.90
2019-04-07T20:04:53.559Z,24.03
2019-04-07T20:07:42.278Z,23.37
2019-04-07T20:10:22.152Z,23.80
2019-04-07T20:12:52.542Z,24.13
2019-04-07T20:15:40.137Z,23.37
2019-04-07T20:18:18.669Z,24.33
2019-04-07T20:21:07.929Z,25.73
2019-04-07T20:23:41.449Z,22.40
2019-04-07T20:26:22.682Z,25.87
2019-04-07T20:29:13.009Z,28.03
2019-04-07T20:32:02.640Z,28.23
2019-04-07T20:34:49.761Z,28.47
2019-04-07T20:37:41.976Z,23.07
2019-04-07T20:40:19.423Z,25.00
2019-04-07T20:43:04.709Z,24.33
2019-04-07T20:45:58.241Z,23.93
2019-04-07T20:48:36.163Z,28.03
2019-04-07T20:51:17.360Z,29.40
2019-04-07T20:54:03.679Z,26.27
2019-04-07T20:56:51.882Z,28.57
2019-04-07T20:59:30.747Z,29.30
2019-04-07T21:02:09.547Z,28.03
2019-04-07T21:04:53.813Z,24.40
2019-04-07T21:07:25.158Z,27.00
2019-04-07T21:09:59.868Z,24.73
2019-04-07T21:12:32.235Z,31.03
2019-04-07T21:15:20.833Z,31.33
2019-04-07T21:17:48.632Z,29.40
2019-04-07T21:20:36.756Z,26.43
2019-04-07T21:23:20.823Z,31.60
2019-04-07T21:25:58.083Z,28.00
2019-04-07T21:28:45.346Z,28.80
2019-04-07T21:31:32.979Z,26.97
2019-04-07T21:34:05.118Z,28.50
2019-04-07T21:36:41.145Z,28.87
2019-04-07T21:39:12.960Z,28.33
2019-04-07T21:41:47.708Z,30.00
2019-04-07T21:44:18.957Z,31.63
2019-04-07T21:46:56.592Z,33.17
2019-04-07T21:49:43.967Z,34.60
2019-04-07T21:52:31.609Z,29.73
2019-04-07T21:55:03.382Z,27.23
2019-04-07T21:57:34.619Z,25.87
2019-04-07T22:00:24.413Z,26.00
2019-04-07T22:03:04.182Z,31.87
2019-04-07T22:05:35.376Z,28.83
2019-04-07T22:08:17.359Z,31.73
2019-04-07T22:10:47.891Z,32.07
2019-04-07T22:13:17.931Z,26.17
2019-04-07T22:15:51.895Z,31.47
2019-04-07T22:18:19.503Z,28.00
2019-04-07T22:20:52.943Z,29.53
2019-04-07T22:23:21.464Z,30.90
2019-04-07T22:25:52.554Z,31.30
2019-04-07T22:28:22.735Z,29.17
2019-04-07T22:30:54.044Z,33.00
2019-04-07T22:33:25.538Z,33.03
2019-04-07T22:35:54.738Z,32.13
2019-04-07T22:38:25.260Z,32.97
2019-04-07T22:40:56.257Z,35.70
2019-04-07T22:43:26.197Z,30.10
2019-04-07T22:46:07.082Z,30.73
2019-04-07T22:48:28.186Z,40.20
2019-04-07T22:50:58.881Z,32.47
2019-04-07T22:53:30.926Z,32.53
2019-04-07T22:55:59.617Z,33.57
2019-04-07T22:58:29.842Z,28.77
2019-04-07T23:01:00.609Z,34.67
2019-04-07T23:03:31.277Z,35.23
2019-04-07T23:06:01.100Z,32.17
2019-04-07T23:08:30.641Z,39.60
2019-04-07T23:11:00.211Z,40.60
2019-04-07T23:13:30.047Z,35.90
2019-04-07T23:16:08.733Z,37.90
2019-04-07T23:18:31.765Z,39.37
2019-04-07T23:21:01.424Z,37.40
2019-04-07T23:23:31.112Z,35.93
2019-04-07T23:26:00.666Z,37.83
2019-04-07T23:28:30.660Z,35.40
2019-04-07T23:31:00.415Z,40.60
2019-04-07T23:33:29.987Z,36.00
2019-04-07T23:35:59.765Z,38.40
2019-04-07T23:38:30.321Z,35.73
2019-04-07T23:41:00.021Z,38.33
2019-04-07T23:43:29.514Z,33.27
2019-04-07T23:46:22.871Z,35.43
2019-04-07T23:48:45.600Z,37.00
2019-04-07T23:51:15.139Z,36.67
2019-04-07T23:54:07.279Z,34.37
2019-04-07T23:56:37.474Z,39.17
2019-04-07T23:59:08.130Z,42.30
